sensor_id;sensor_type;location;lat;lon;timestamp;P1;durP1;ratioP1;P2;durP2;ratioP2
57746;SDS011;43580;44.014;20.466;2023-03-17T00:01:12;325.75;;;152.43;;
57746;SDS011;43580;44.014;20.466;2023-03-17T00:03:39;344.17;;;164.60;;
57746;SDS011;43580;44.014;20.466;2023-03-17T00:06:29;373.25;;;191.45;;
57746;SDS011;43580;44.014;20.466;2023-03-17T00:08:54;337.05;;;161.23;;
57746;SDS011;43580;44.014;20.466;2023-03-17T00:11:21;295.73;;;143.70;;
57746;SDS011;43580;44.014;20.466;2023-03-17T00:13:48;247.73;;;117.35;;
57746;SDS011;43580;44.014;20.466;2023-03-17T00:18:46;223.82;;;108.82;;
57746;SDS011;43580;44.014;20.466;2023-03-17T00:21:13;205.07;;;97.75;;
57746;SDS011;43580;44.014;20.466;2023-03-17T00:23:40;155.23;;;74.78;;
57746;SDS011;43580;44.014;20.466;2023-03-17T00:26:08;191.23;;;98.53;;
57746;SDS011;43580;44.014;20.466;2023-03-17T00:28:35;144.03;;;71.67;;
57746;SDS011;43580;44.014;20.466;2023-03-17T00:31:05;125.78;;;60.63;;
57746;SDS011;43580;44.014;20.466;2023-03-17T00:33:35;116.27;;;56.50;;
57746;SDS011;43580;44.014;20.466;2023-03-17T00:36:01;113.00;;;54.80;;
57746;SDS011;43580;44.014;20.466;2023-03-17T00:38:27;108.80;;;50.92;;
57746;SDS011;43580;44.014;20.466;2023-03-17T00:40:54;111.78;;;51.92;;
57746;SDS011;43580;44.014;20.466;2023-03-17T00:43:20;152.60;;;69.90;;
57746;SDS011;43580;44.014;20.466;2023-03-17T00:45:46;185.68;;;88.85;;
57746;SDS011;43580;44.014;20.466;2023-03-17T00:48:15;146.98;;;71.00;;
57746;SDS011;43580;44.014;20.466;2023-03-17T00:50:43;177.80;;;83.95;;
57746;SDS011;43580;44.014;20.466;2023-03-17T00:53:13;185.15;;;90.13;;
57746;SDS011;43580;44.014;20.466;2023-03-17T00:55:40;199.70;;;95.97;;
57746;SDS011;43580;44.014;20.466;2023-03-17T00:58:22;169.70;;;80.88;;
57746;SDS011;43580;44.014;20.466;2023-03-17T01:00:48;208.27;;;144.93;;
57746;SDS011;43580;44.014;20.466;2023-03-17T01:03:16;169.43;;;102.60;;
57746;SDS011;43580;44.014;20.466;2023-03-17T01:05:42;160.18;;;80.85;;
57746;SDS011;43580;44.014;20.466;2023-03-17T01:08:11;181.48;;;85.82;;
57746;SDS011;43580;44.014;20.466;2023-03-17T01:10:37;161.57;;;79.85;;
57746;SDS011;43580;44.014;20.466;2023-03-17T01:13:04;129.55;;;64.03;;
57746;SDS011;43580;44.014;20.466;2023-03-17T01:15:30;141.50;;;60.65;;
57746;SDS011;43580;44.014;20.466;2023-03-17T01:18:00;110.78;;;43.45;;
57746;SDS011;43580;44.014;20.466;2023-03-17T01:20:28;87.60;;;46.65;;
57746;SDS011;43580;44.014;20.466;2023-03-17T01:22:58;83.95;;;40.00;;
57746;SDS011;43580;44.014;20.466;2023-03-17T01:25:25;73.53;;;34.20;;
57746;SDS011;43580;44.014;20.466;2023-03-17T01:27:53;59.45;;;31.30;;
57746;SDS011;43580;44.014;20.466;2023-03-17T01:32:45;39.40;;;20.10;;
57746;SDS011;43580;44.014;20.466;2023-03-17T01:35:12;101.10;;;49.80;;
57746;SDS011;43580;44.014;20.466;2023-03-17T01:37:38;166.50;;;80.68;;
57746;SDS011;43580;44.014;20.466;2023-03-17T01:40:05;158.40;;;76.63;;
57746;SDS011;43580;44.014;20.466;2023-03-17T01:42:31;143.75;;;72.03;;
57746;SDS011;43580;44.014;20.466;2023-03-17T01:44:59;142.43;;;70.07;;
57746;SDS011;43580;44.014;20.466;2023-03-17T01:47:26;137.48;;;66.90;;
57746;SDS011;43580;44.014;20.466;2023-03-17T01:49:56;104.82;;;51.33;;
57746;SDS011;43580;44.014;20.466;2023-03-17T01:52:24;122.95;;;57.25;;
57746;SDS011;43580;44.014;20.466;2023-03-17T01:55:01;130.13;;;60.20;;
57746;SDS011;43580;44.014;20.466;2023-03-17T01:57:30;101.18;;;48.13;;
57746;SDS011;43580;44.014;20.466;2023-03-17T02:02:31;77.93;;;40.58;;
57746;SDS011;43580;44.014;20.466;2023-03-17T02:04:58;129.15;;;60.55;;
57746;SDS011;43580;44.014;20.466;2023-03-17T02:07:25;105.45;;;50.03;;
57746;SDS011;43580;44.014;20.466;2023-03-17T02:09:52;59.83;;;30.95;;
57746;SDS011;43580;44.014;20.466;2023-03-17T02:12:19;70.90;;;34.50;;
57746;SDS011;43580;44.014;20.466;2023-03-17T02:14:48;66.90;;;35.13;;
57746;SDS011;43580;44.014;20.466;2023-03-17T02:17:14;86.93;;;41.35;;
57746;SDS011;43580;44.014;20.466;2023-03-17T02:19:46;103.43;;;48.35;;
57746;SDS011;43580;44.014;20.466;2023-03-17T02:22:12;89.07;;;43.08;;
57746;SDS011;43580;44.014;20.466;2023-03-17T02:24:40;66.55;;;34.00;;
57746;SDS011;43580;44.014;20.466;2023-03-17T02:27:09;70.53;;;33.88;;
57746;SDS011;43580;44.014;20.466;2023-03-17T02:29:36;46.78;;;23.60;;
57746;SDS011;43580;44.014;20.466;2023-03-17T02:32:03;55.70;;;26.13;;
57746;SDS011;43580;44.014;20.466;2023-03-17T02:34:30;47.90;;;23.23;;
57746;SDS011;43580;44.014;20.466;2023-03-17T02:36:56;44.53;;;23.52;;
57746;SDS011;43580;44.014;20.466;2023-03-17T02:39:23;58.08;;;29.23;;
57746;SDS011;43580;44.014;20.466;2023-03-17T02:41:49;59.40;;;29.52;;
57746;SDS011;43580;44.014;20.466;2023-03-17T02:44:16;63.60;;;30.13;;
57746;SDS011;43580;44.014;20.466;2023-03-17T02:46:42;56.15;;;30.40;;
57746;SDS011;43580;44.014;20.466;2023-03-17T02:49:11;84.45;;;39.80;;
57746;SDS011;43580;44.014;20.466;2023-03-17T02:51:37;91.07;;;43.05;;
57746;SDS011;43580;44.014;20.466;2023-03-17T02:54:03;88.97;;;42.42;;
57746;SDS011;43580;44.014;20.466;2023-03-17T02:56:29;96.68;;;46.83;;
57746;SDS011;43580;44.014;20.466;2023-03-17T02:58:56;84.07;;;39.75;;
57746;SDS011;43580;44.014;20.466;2023-03-17T03:01:22;82.88;;;37.33;;
57746;SDS011;43580;44.014;20.466;2023-03-17T03:03:50;66.80;;;31.23;;
57746;SDS011;43580;44.014;20.466;2023-03-17T03:06:17;56.65;;;27.50;;
57746;SDS011;43580;44.014;20.466;2023-03-17T03:08:43;44.40;;;21.35;;
57746;SDS011;43580;44.014;20.466;2023-03-17T03:11:09;34.38;;;18.35;;
57746;SDS011;43580;44.014;20.466;2023-03-17T03:13:36;27.58;;;15.10;;
57746;SDS011;43580;44.014;20.466;2023-03-17T03:16:02;25.77;;;12.98;;
57746;SDS011;43580;44.014;20.466;2023-03-17T03:18:29;20.60;;;11.15;;
57746;SDS011;43580;44.014;20.466;2023-03-17T03:20:56;23.42;;;11.90;;
57746;SDS011;43580;44.014;20.466;2023-03-17T03:23:22;33.25;;;15.45;;
57746;SDS011;43580;44.014;20.466;2023-03-17T03:25:48;35.65;;;16.08;;
57746;SDS011;43580;44.014;20.466;2023-03-17T03:28:15;28.80;;;14.75;;
57746;SDS011;43580;44.014;20.466;2023-03-17T03:30:41;40.38;;;22.08;;
57746;SDS011;43580;44.014;20.466;2023-03-17T03:33:08;59.58;;;29.70;;
57746;SDS011;43580;44.014;20.466;2023-03-17T03:35:35;44.72;;;24.05;;
57746;SDS011;43580;44.014;20.466;2023-03-17T03:38:01;44.90;;;21.58;;
57746;SDS011;43580;44.014;20.466;2023-03-17T03:40:27;43.42;;;22.65;;
57746;SDS011;43580;44.014;20.466;2023-03-17T03:42:53;58.25;;;26.00;;
57746;SDS011;43580;44.014;20.466;2023-03-17T03:45:20;59.60;;;30.02;;
57746;SDS011;43580;44.014;20.466;2023-03-17T03:47:48;54.42;;;27.98;;
57746;SDS011;43580;44.014;20.466;2023-03-17T03:50:14;49.53;;;25.45;;
57746;SDS011;43580;44.014;20.466;2023-03-17T03:52:41;68.57;;;34.25;;
57746;SDS011;43580;44.014;20.466;2023-03-17T03:55:09;73.70;;;37.53;;
57746;SDS011;43580;44.014;20.466;2023-03-17T03:57:38;71.22;;;36.08;;
57746;SDS011;43580;44.014;20.466;2023-03-17T04:00:04;58.47;;;28.05;;
57746;SDS011;43580;44.014;20.466;2023-03-17T04:02:31;42.33;;;20.25;;
57746;SDS011;43580;44.014;20.466;2023-03-17T04:05:00;67.97;;;47.42;;
57746;SDS011;43580;44.014;20.466;2023-03-17T04:07:26;66.75;;;40.33;;
57746;SDS011;43580;44.014;20.466;2023-03-17T04:09:52;50.78;;;27.80;;
57746;SDS011;43580;44.014;20.466;2023-03-17T04:12:18;71.63;;;33.55;;
57746;SDS011;43580;44.014;20.466;2023-03-17T04:14:44;38.75;;;23.30;;
57746;SDS011;43580;44.014;20.466;2023-03-17T04:17:11;73.97;;;41.95;;
57746;SDS011;43580;44.014;20.466;2023-03-17T04:19:39;34.55;;;18.38;;
57746;SDS011;43580;44.014;20.466;2023-03-17T04:22:05;98.78;;;50.03;;
57746;SDS011;43580;44.014;20.466;2023-03-17T04:24:33;64.45;;;32.83;;
57746;SDS011;43580;44.014;20.466;2023-03-17T04:26:59;72.55;;;39.80;;
57746;SDS011;43580;44.014;20.466;2023-03-17T04:29:28;48.13;;;25.70;;
57746;SDS011;43580;44.014;20.466;2023-03-17T04:31:55;67.18;;;34.13;;
57746;SDS011;43580;44.014;20.466;2023-03-17T04:34:21;32.72;;;16.50;;
57746;SDS011;43580;44.014;20.466;2023-03-17T04:36:48;46.55;;;23.00;;
57746;SDS011;43580;44.014;20.466;2023-03-17T04:39:14;52.10;;;25.83;;
57746;SDS011;43580;44.014;20.466;2023-03-17T04:41:40;51.53;;;25.20;;
57746;SDS011;43580;44.014;20.466;2023-03-17T04:44:09;47.13;;;23.92;;
57746;SDS011;43580;44.014;20.466;2023-03-17T04:46:35;43.05;;;23.05;;
57746;SDS011;43580;44.014;20.466;2023-03-17T04:49:02;46.63;;;22.30;;
57746;SDS011;43580;44.014;20.466;2023-03-17T04:51:28;57.97;;;29.83;;
57746;SDS011;43580;44.014;20.466;2023-03-17T04:53:55;98.57;;;54.47;;
57746;SDS011;43580;44.014;20.466;2023-03-17T04:56:21;89.80;;;49.60;;
57746;SDS011;43580;44.014;20.466;2023-03-17T04:58:47;86.72;;;45.53;;
57746;SDS011;43580;44.014;20.466;2023-03-17T05:01:13;67.80;;;38.05;;
57746;SDS011;43580;44.014;20.466;2023-03-17T05:03:39;64.07;;;33.78;;
57746;SDS011;43580;44.014;20.466;2023-03-17T05:06:05;52.85;;;28.40;;
57746;SDS011;43580;44.014;20.466;2023-03-17T05:08:32;49.97;;;30.38;;
57746;SDS011;43580;44.014;20.466;2023-03-17T05:10:58;62.70;;;30.10;;
57746;SDS011;43580;44.014;20.466;2023-03-17T05:13:25;73.40;;;30.23;;
57746;SDS011;43580;44.014;20.466;2023-03-17T05:15:52;65.35;;;32.83;;
57746;SDS011;43580;44.014;20.466;2023-03-17T05:18:23;66.30;;;31.35;;
57746;SDS011;43580;44.014;20.466;2023-03-17T05:20:50;81.38;;;34.30;;
57746;SDS011;43580;44.014;20.466;2023-03-17T05:23:16;60.72;;;29.73;;
57746;SDS011;43580;44.014;20.466;2023-03-17T05:25:42;61.03;;;28.67;;
57746;SDS011;43580;44.014;20.466;2023-03-17T05:28:09;52.72;;;27.38;;
57746;SDS011;43580;44.014;20.466;2023-03-17T05:30:35;52.83;;;28.25;;
57746;SDS011;43580;44.014;20.466;2023-03-17T05:33:02;65.18;;;34.47;;
57746;SDS011;43580;44.014;20.466;2023-03-17T05:35:28;82.40;;;38.47;;
57746;SDS011;43580;44.014;20.466;2023-03-17T05:37:54;61.70;;;35.20;;
57746;SDS011;43580;44.014;20.466;2023-03-17T05:40:21;80.40;;;35.83;;
57746;SDS011;43580;44.014;20.466;2023-03-17T05:42:50;63.63;;;31.98;;
57746;SDS011;43580;44.014;20.466;2023-03-17T05:45:16;76.53;;;36.50;;
57746;SDS011;43580;44.014;20.466;2023-03-17T05:47:43;71.78;;;34.25;;
57746;SDS011;43580;44.014;20.466;2023-03-17T05:50:10;72.20;;;34.95;;
57746;SDS011;43580;44.014;20.466;2023-03-17T05:52:36;76.93;;;36.15;;
57746;SDS011;43580;44.014;20.466;2023-03-17T05:55:03;78.60;;;38.72;;
57746;SDS011;43580;44.014;20.466;2023-03-17T05:57:29;74.30;;;38.85;;
57746;SDS011;43580;44.014;20.466;2023-03-17T05:59:55;95.85;;;44.03;;
57746;SDS011;43580;44.014;20.466;2023-03-17T06:02:22;92.40;;;42.40;;
57746;SDS011;43580;44.014;20.466;2023-03-17T06:04:48;90.85;;;44.17;;
57746;SDS011;43580;44.014;20.466;2023-03-17T06:07:14;97.40;;;47.20;;
57746;SDS011;43580;44.014;20.466;2023-03-17T06:09:41;139.52;;;74.30;;
57746;SDS011;43580;44.014;20.466;2023-03-17T06:12:09;119.60;;;58.13;;
57746;SDS011;43580;44.014;20.466;2023-03-17T06:14:36;109.53;;;51.50;;
57746;SDS011;43580;44.014;20.466;2023-03-17T06:17:02;111.60;;;50.88;;
57746;SDS011;43580;44.014;20.466;2023-03-17T06:19:28;108.40;;;48.75;;
57746;SDS011;43580;44.014;20.466;2023-03-17T06:21:59;114.78;;;54.38;;
57746;SDS011;43580;44.014;20.466;2023-03-17T06:24:25;165.18;;;71.60;;
57746;SDS011;43580;44.014;20.466;2023-03-17T06:26:51;141.70;;;67.72;;
57746;SDS011;43580;44.014;20.466;2023-03-17T06:29:18;146.60;;;72.05;;
57746;SDS011;43580;44.014;20.466;2023-03-17T06:31:44;113.10;;;57.33;;
57746;SDS011;43580;44.014;20.466;2023-03-17T06:34:18;94.47;;;46.08;;
57746;SDS011;43580;44.014;20.466;2023-03-17T06:36:44;90.55;;;50.22;;
57746;SDS011;43580;44.014;20.466;2023-03-17T06:39:14;85.18;;;47.60;;
57746;SDS011;43580;44.014;20.466;2023-03-17T06:41:40;78.55;;;43.42;;
57746;SDS011;43580;44.014;20.466;2023-03-17T06:44:06;72.85;;;38.65;;
57746;SDS011;43580;44.014;20.466;2023-03-17T06:46:34;85.03;;;49.17;;
57746;SDS011;43580;44.014;20.466;2023-03-17T06:49:00;91.70;;;48.83;;
57746;SDS011;43580;44.014;20.466;2023-03-17T06:51:27;81.63;;;42.78;;
57746;SDS011;43580;44.014;20.466;2023-03-17T06:53:53;56.38;;;31.88;;
57746;SDS011;43580;44.014;20.466;2023-03-17T06:56:19;41.25;;;24.17;;
57746;SDS011;43580;44.014;20.466;2023-03-17T06:58:45;35.53;;;18.08;;
57746;SDS011;43580;44.014;20.466;2023-03-17T07:01:12;37.10;;;21.17;;
57746;SDS011;43580;44.014;20.466;2023-03-17T07:03:38;25.80;;;12.57;;
57746;SDS011;43580;44.014;20.466;2023-03-17T07:06:05;31.90;;;18.48;;
57746;SDS011;43580;44.014;20.466;2023-03-17T07:08:31;40.55;;;23.42;;
57746;SDS011;43580;44.014;20.466;2023-03-17T07:10:58;32.85;;;17.00;;
57746;SDS011;43580;44.014;20.466;2023-03-17T07:13:24;27.60;;;14.82;;
57746;SDS011;43580;44.014;20.466;2023-03-17T07:15:51;37.88;;;21.73;;
57746;SDS011;43580;44.014;20.466;2023-03-17T07:18:18;36.80;;;20.23;;
57746;SDS011;43580;44.014;20.466;2023-03-17T07:20:44;45.88;;;21.20;;
57746;SDS011;43580;44.014;20.466;2023-03-17T07:23:20;49.78;;;24.20;;
57746;SDS011;43580;44.014;20.466;2023-03-17T07:25:47;35.58;;;18.08;;
57746;SDS011;43580;44.014;20.466;2023-03-17T07:28:13;30.48;;;15.15;;
57746;SDS011;43580;44.014;20.466;2023-03-17T07:30:46;31.65;;;16.90;;
57746;SDS011;43580;44.014;20.466;2023-03-17T07:33:13;26.40;;;15.25;;
57746;SDS011;43580;44.014;20.466;2023-03-17T07:35:41;25.27;;;14.30;;
57746;SDS011;43580;44.014;20.466;2023-03-17T07:38:07;24.35;;;12.48;;
57746;SDS011;43580;44.014;20.466;2023-03-17T07:40:34;23.48;;;11.60;;
57746;SDS011;43580;44.014;20.466;2023-03-17T07:43:00;35.85;;;21.30;;
57746;SDS011;43580;44.014;20.466;2023-03-17T07:45:26;26.80;;;14.18;;
57746;SDS011;43580;44.014;20.466;2023-03-17T07:47:52;82.25;;;38.22;;
57746;SDS011;43580;44.014;20.466;2023-03-17T07:50:21;246.35;;;98.82;;
57746;SDS011;43580;44.014;20.466;2023-03-17T07:52:50;41.92;;;19.83;;
57746;SDS011;43580;44.014;20.466;2023-03-17T07:55:16;48.72;;;24.65;;
57746;SDS011;43580;44.014;20.466;2023-03-17T07:57:42;64.15;;;33.90;;
57746;SDS011;43580;44.014;20.466;2023-03-17T08:00:09;39.70;;;20.63;;
57746;SDS011;43580;44.014;20.466;2023-03-17T08:02:37;33.00;;;16.80;;
57746;SDS011;43580;44.014;20.466;2023-03-17T08:05:04;32.17;;;16.73;;
57746;SDS011;43580;44.014;20.466;2023-03-17T08:07:31;40.20;;;22.88;;
57746;SDS011;43580;44.014;20.466;2023-03-17T08:09:57;44.17;;;20.00;;
57746;SDS011;43580;44.014;20.466;2023-03-17T08:12:24;28.23;;;15.38;;
57746;SDS011;43580;44.014;20.466;2023-03-17T08:14:53;28.45;;;14.93;;
57746;SDS011;43580;44.014;20.466;2023-03-17T08:17:19;33.50;;;19.23;;
57746;SDS011;43580;44.014;20.466;2023-03-17T08:19:52;16.75;;;8.57;;
57746;SDS011;43580;44.014;20.466;2023-03-17T08:22:18;22.88;;;10.80;;
57746;SDS011;43580;44.014;20.466;2023-03-17T08:24:44;23.98;;;10.27;;
57746;SDS011;43580;44.014;20.466;2023-03-17T08:27:10;18.23;;;8.95;;
57746;SDS011;43580;44.014;20.466;2023-03-17T08:29:36;20.65;;;11.50;;
57746;SDS011;43580;44.014;20.466;2023-03-17T08:32:03;22.17;;;12.15;;
57746;SDS011;43580;44.014;20.466;2023-03-17T08:34:29;18.20;;;8.85;;
57746;SDS011;43580;44.014;20.466;2023-03-17T08:36:55;23.48;;;12.25;;
57746;SDS011;43580;44.014;20.466;2023-03-17T08:39:22;19.80;;;8.70;;
57746;SDS011;43580;44.014;20.466;2023-03-17T08:41:51;20.25;;;10.95;;
57746;SDS011;43580;44.014;20.466;2023-03-17T08:44:17;14.40;;;7.35;;
57746;SDS011;43580;44.014;20.466;2023-03-17T08:46:43;15.15;;;8.13;;
57746;SDS011;43580;44.014;20.466;2023-03-17T08:49:10;20.13;;;8.02;;
57746;SDS011;43580;44.014;20.466;2023-03-17T08:51:40;23.02;;;10.63;;
57746;SDS011;43580;44.014;20.466;2023-03-17T08:54:06;17.85;;;8.20;;
57746;SDS011;43580;44.014;20.466;2023-03-17T08:56:32;14.50;;;7.05;;
57746;SDS011;43580;44.014;20.466;2023-03-17T08:58:59;19.67;;;9.13;;
57746;SDS011;43580;44.014;20.466;2023-03-17T09:01:25;12.40;;;6.63;;
57746;SDS011;43580;44.014;20.466;2023-03-17T09:03:54;13.25;;;6.15;;
57746;SDS011;43580;44.014;20.466;2023-03-17T09:06:20;14.65;;;6.03;;
57746;SDS011;43580;44.014;20.466;2023-03-17T09:08:47;13.02;;;6.18;;
57746;SDS011;43580;44.014;20.466;2023-03-17T09:11:22;19.05;;;10.18;;
57746;SDS011;43580;44.014;20.466;2023-03-17T09:13:48;13.80;;;6.35;;
57746;SDS011;43580;44.014;20.466;2023-03-17T09:16:14;15.07;;;7.43;;
57746;SDS011;43580;44.014;20.466;2023-03-17T09:18:42;20.65;;;10.05;;
57746;SDS011;43580;44.014;20.466;2023-03-17T09:21:09;17.42;;;7.70;;
57746;SDS011;43580;44.014;20.466;2023-03-17T09:23:37;22.85;;;9.43;;
57746;SDS011;43580;44.014;20.466;2023-03-17T09:26:06;18.20;;;8.18;;
57746;SDS011;43580;44.014;20.466;2023-03-17T09:28:37;16.48;;;8.05;;
57746;SDS011;43580;44.014;20.466;2023-03-17T09:31:04;18.05;;;12.02;;
57746;SDS011;43580;44.014;20.466;2023-03-17T09:33:35;10.98;;;6.38;;
57746;SDS011;43580;44.014;20.466;2023-03-17T09:36:01;12.45;;;8.57;;
57746;SDS011;43580;44.014;20.466;2023-03-17T09:38:27;9.70;;;5.93;;
57746;SDS011;43580;44.014;20.466;2023-03-17T09:40:58;27.25;;;13.50;;
57746;SDS011;43580;44.014;20.466;2023-03-17T09:43:27;15.85;;;8.20;;
57746;SDS011;43580;44.014;20.466;2023-03-17T09:45:56;13.65;;;5.20;;
57746;SDS011;43580;44.014;20.466;2023-03-17T09:51:01;11.65;;;7.38;;
57746;SDS011;43580;44.014;20.466;2023-03-17T09:53:30;13.70;;;5.93;;
57746;SDS011;43580;44.014;20.466;2023-03-17T09:55:59;12.75;;;6.57;;
57746;SDS011;43580;44.014;20.466;2023-03-17T09:58:29;13.73;;;6.68;;
57746;SDS011;43580;44.014;20.466;2023-03-17T10:00:56;12.68;;;6.15;;
57746;SDS011;43580;44.014;20.466;2023-03-17T10:03:25;13.25;;;5.55;;
57746;SDS011;43580;44.014;20.466;2023-03-17T10:05:57;19.10;;;7.20;;
57746;SDS011;43580;44.014;20.466;2023-03-17T10:08:25;15.65;;;8.80;;
57746;SDS011;43580;44.014;20.466;2023-03-17T10:10:58;8.02;;;4.45;;
57746;SDS011;43580;44.014;20.466;2023-03-17T10:16:13;8.27;;;4.20;;
57746;SDS011;43580;44.014;20.466;2023-03-17T10:18:43;11.07;;;4.50;;
57746;SDS011;43580;44.014;20.466;2023-03-17T10:21:16;9.43;;;5.03;;
57746;SDS011;43580;44.014;20.466;2023-03-17T10:23:43;8.65;;;4.13;;
57746;SDS011;43580;44.014;20.466;2023-03-17T10:26:20;9.02;;;5.32;;
57746;SDS011;43580;44.014;20.466;2023-03-17T10:28:49;14.73;;;7.90;;
57746;SDS011;43580;44.014;20.466;2023-03-17T10:31:17;12.60;;;5.70;;
57746;SDS011;43580;44.014;20.466;2023-03-17T10:33:45;9.50;;;4.30;;
57746;SDS011;43580;44.014;20.466;2023-03-17T10:36:14;7.18;;;4.35;;
57746;SDS011;43580;44.014;20.466;2023-03-17T10:38:41;11.65;;;6.32;;
57746;SDS011;43580;44.014;20.466;2023-03-17T10:41:13;7.47;;;4.18;;
57746;SDS011;43580;44.014;20.466;2023-03-17T10:43:42;10.65;;;5.20;;
57746;SDS011;43580;44.014;20.466;2023-03-17T10:46:16;9.13;;;4.40;;
57746;SDS011;43580;44.014;20.466;2023-03-17T10:48:42;7.60;;;3.80;;
57746;SDS011;43580;44.014;20.466;2023-03-17T10:51:17;8.35;;;3.63;;
57746;SDS011;43580;44.014;20.466;2023-03-17T10:53:45;9.00;;;4.18;;
57746;SDS011;43580;44.014;20.466;2023-03-17T10:56:22;10.20;;;3.85;;
57746;SDS011;43580;44.014;20.466;2023-03-17T10:58:50;8.13;;;4.50;;
57746;SDS011;43580;44.014;20.466;2023-03-17T11:01:35;8.20;;;3.92;;
57746;SDS011;43580;44.014;20.466;2023-03-17T11:04:05;21.52;;;10.02;;
57746;SDS011;43580;44.014;20.466;2023-03-17T11:06:43;10.32;;;3.70;;
57746;SDS011;43580;44.014;20.466;2023-03-17T11:09:15;9.98;;;3.60;;
57746;SDS011;43580;44.014;20.466;2023-03-17T11:11:49;7.28;;;3.75;;
57746;SDS011;43580;44.014;20.466;2023-03-17T11:14:24;7.78;;;4.05;;
57746;SDS011;43580;44.014;20.466;2023-03-17T11:16:55;11.98;;;7.85;;
57746;SDS011;43580;44.014;20.466;2023-03-17T11:19:28;9.70;;;6.40;;
57746;SDS011;43580;44.014;20.466;2023-03-17T11:22:06;6.68;;;3.67;;
57746;SDS011;43580;44.014;20.466;2023-03-17T11:24:36;5.95;;;3.50;;
57746;SDS011;43580;44.014;20.466;2023-03-17T11:27:11;8.55;;;3.60;;
57746;SDS011;43580;44.014;20.466;2023-03-17T11:47:40;10.40;;;5.38;;
57746;SDS011;43580;44.014;20.466;2023-03-17T12:00:40;11.73;;;5.18;;
57746;SDS011;43580;44.014;20.466;2023-03-17T12:05:39;7.30;;;4.35;;
57746;SDS011;43580;44.014;20.466;2023-03-17T12:08:09;13.15;;;7.47;;
57746;SDS011;43580;44.014;20.466;2023-03-17T12:13:23;6.70;;;3.83;;
57746;SDS011;43580;44.014;20.466;2023-03-17T12:15:54;8.25;;;4.88;;
57746;SDS011;43580;44.014;20.466;2023-03-17T12:21:11;17.77;;;10.57;;
57746;SDS011;43580;44.014;20.466;2023-03-17T12:23:56;19.73;;;11.20;;
57746;SDS011;43580;44.014;20.466;2023-03-17T12:28:59;9.30;;;4.93;;
57746;SDS011;43580;44.014;20.466;2023-03-17T12:31:29;18.48;;;12.23;;
57746;SDS011;43580;44.014;20.466;2023-03-17T12:36:40;13.77;;;6.95;;
57746;SDS011;43580;44.014;20.466;2023-03-17T12:39:13;12.85;;;8.05;;
57746;SDS011;43580;44.014;20.466;2023-03-17T12:44:21;8.40;;;4.57;;
57746;SDS011;43580;44.014;20.466;2023-03-17T12:54:33;21.33;;;12.00;;
57746;SDS011;43580;44.014;20.466;2023-03-17T12:57:17;9.70;;;6.13;;
57746;SDS011;43580;44.014;20.466;2023-03-17T12:59:47;11.10;;;6.07;;
57746;SDS011;43580;44.014;20.466;2023-03-17T13:04:46;9.07;;;4.55;;
57746;SDS011;43580;44.014;20.466;2023-03-17T13:07:15;7.13;;;4.18;;
57746;SDS011;43580;44.014;20.466;2023-03-17T13:14:53;12.10;;;4.93;;
57746;SDS011;43580;44.014;20.466;2023-03-17T13:22:34;11.13;;;4.60;;
57746;SDS011;43580;44.014;20.466;2023-03-17T13:41:10;14.38;;;6.82;;
57746;SDS011;43580;44.014;20.466;2023-03-17T13:46:18;10.98;;;5.78;;
57746;SDS011;43580;44.014;20.466;2023-03-17T13:48:45;6.63;;;4.00;;
57746;SDS011;43580;44.014;20.466;2023-03-17T13:51:20;30.55;;;16.10;;
57746;SDS011;43580;44.014;20.466;2023-03-17T13:54:05;16.75;;;9.77;;
57746;SDS011;43580;44.014;20.466;2023-03-17T13:59:04;7.93;;;4.13;;
57746;SDS011;43580;44.014;20.466;2023-03-17T14:01:38;34.55;;;20.20;;
57746;SDS011;43580;44.014;20.466;2023-03-17T14:06:31;10.50;;;5.95;;
57746;SDS011;43580;44.014;20.466;2023-03-17T14:11:49;7.07;;;4.18;;
57746;SDS011;43580;44.014;20.466;2023-03-17T14:14:31;23.70;;;15.75;;
57746;SDS011;43580;44.014;20.466;2023-03-17T14:17:07;9.07;;;4.28;;
57746;SDS011;43580;44.014;20.466;2023-03-17T14:19:36;22.25;;;14.40;;
57746;SDS011;43580;44.014;20.466;2023-03-17T14:22:22;11.73;;;8.25;;
57746;SDS011;43580;44.014;20.466;2023-03-17T14:24:55;22.75;;;15.40;;
57746;SDS011;43580;44.014;20.466;2023-03-17T14:27:23;25.05;;;15.93;;
57746;SDS011;43580;44.014;20.466;2023-03-17T14:29:51;24.80;;;12.45;;
57746;SDS011;43580;44.014;20.466;2023-03-17T14:32:18;18.02;;;8.57;;
57746;SDS011;43580;44.014;20.466;2023-03-17T14:34:51;11.00;;;5.20;;
57746;SDS011;43580;44.014;20.466;2023-03-17T14:37:19;21.77;;;7.68;;
57746;SDS011;43580;44.014;20.466;2023-03-17T14:39:50;7.88;;;5.10;;
57746;SDS011;43580;44.014;20.466;2023-03-17T14:42:17;41.67;;;24.85;;
57746;SDS011;43580;44.014;20.466;2023-03-17T14:44:43;15.60;;;12.68;;
57746;SDS011;43580;44.014;20.466;2023-03-17T14:47:14;13.00;;;7.20;;
57746;SDS011;43580;44.014;20.466;2023-03-17T14:49:42;20.73;;;11.95;;
57746;SDS011;43580;44.014;20.466;2023-03-17T14:52:16;17.00;;;9.48;;
57746;SDS011;43580;44.014;20.466;2023-03-17T14:54:42;14.10;;;6.78;;
57746;SDS011;43580;44.014;20.466;2023-03-17T14:57:13;17.27;;;8.98;;
57746;SDS011;43580;44.014;20.466;2023-03-17T14:59:41;14.43;;;7.47;;
57746;SDS011;43580;44.014;20.466;2023-03-17T15:02:20;13.75;;;6.78;;
57746;SDS011;43580;44.014;20.466;2023-03-17T15:04:54;7.13;;;3.92;;
57746;SDS011;43580;44.014;20.466;2023-03-17T15:07:34;8.65;;;4.47;;
57746;SDS011;43580;44.014;20.466;2023-03-17T15:10:01;9.07;;;5.03;;
57746;SDS011;43580;44.014;20.466;2023-03-17T15:12:30;20.63;;;11.25;;
57746;SDS011;43580;44.014;20.466;2023-03-17T15:14:57;21.48;;;11.48;;
57746;SDS011;43580;44.014;20.466;2023-03-17T15:17:26;13.48;;;7.20;;
57746;SDS011;43580;44.014;20.466;2023-03-17T15:19:54;6.82;;;4.30;;
57746;SDS011;43580;44.014;20.466;2023-03-17T15:27:26;10.48;;;4.68;;
57746;SDS011;43580;44.014;20.466;2023-03-17T15:29:52;7.88;;;4.63;;
57746;SDS011;43580;44.014;20.466;2023-03-17T15:32:20;8.10;;;4.20;;
57746;SDS011;43580;44.014;20.466;2023-03-17T15:34:48;30.25;;;17.42;;
57746;SDS011;43580;44.014;20.466;2023-03-17T15:37:16;19.25;;;9.05;;
57746;SDS011;43580;44.014;20.466;2023-03-17T15:39:42;10.07;;;6.45;;
57746;SDS011;43580;44.014;20.466;2023-03-17T15:42:11;8.25;;;4.93;;
57746;SDS011;43580;44.014;20.466;2023-03-17T15:44:37;13.90;;;8.23;;
57746;SDS011;43580;44.014;20.466;2023-03-17T15:47:03;12.02;;;6.60;;
57746;SDS011;43580;44.014;20.466;2023-03-17T15:49:29;17.83;;;8.68;;
57746;SDS011;43580;44.014;20.466;2023-03-17T15:51:55;12.35;;;8.57;;
57746;SDS011;43580;44.014;20.466;2023-03-17T15:54:21;14.50;;;8.77;;
57746;SDS011;43580;44.014;20.466;2023-03-17T15:56:47;19.70;;;15.07;;
57746;SDS011;43580;44.014;20.466;2023-03-17T15:59:16;32.42;;;21.05;;
57746;SDS011;43580;44.014;20.466;2023-03-17T16:01:42;33.42;;;21.58;;
57746;SDS011;43580;44.014;20.466;2023-03-17T16:04:08;23.52;;;16.05;;
57746;SDS011;43580;44.014;20.466;2023-03-17T16:06:34;27.95;;;17.80;;